sensor_id;sensor_type;location;lat;lon;timestamp;pressure;altitude;pressure_sealevel;temperature;humidity
12077;BME280;12420;42.676;23.262;2024-01-30T00:00:39;96500.69;;;0.31;88.88
12077;BME280;12420;42.676;23.262;2024-01-30T00:03:06;96503.06;;;0.29;88.99
12077;BME280;12420;42.676;23.262;2024-01-30T00:05:33;96505.81;;;0.25;89.21
12077;BME280;12420;42.676;23.262;2024-01-30T00:08:01;96508.41;;;0.36;89.45
12077;BME280;12420;42.676;23.262;2024-01-30T00:10:28;96476.69;;;0.22;88.61
12077;BME280;12420;42.676;23.262;2024-01-30T00:12:55;96502.16;;;0.35;89.41
12077;BME280;12420;42.676;23.262;2024-01-30T00:15:21;96485.22;;;0.24;88.46
12077;BME280;12420;42.676;23.262;2024-01-30T00:17:48;96502.22;;;0.32;88.45
12077;BME280;12420;42.676;23.262;2024-01-30T00:20:17;96502.59;;;0.34;88.73
12077;BME280;12420;42.676;23.262;2024-01-30T00:22:44;96503.75;;;0.33;88.73
12077;BME280;12420;42.676;23.262;2024-01-30T00:25:12;96480.81;;;0.07;88.28
12077;BME280;12420;42.676;23.262;2024-01-30T00:27:39;96503.00;;;0.32;88.78
12077;BME280;12420;42.676;23.262;2024-01-30T00:30:07;96498.75;;;0.31;88.92
12077;BME280;12420;42.676;23.262;2024-01-30T00:32:34;96477.41;;;0.26;88.44
12077;BME280;12420;42.676;23.262;2024-01-30T00:35:01;96489.16;;;0.23;88.77
12077;BME280;12420;42.676;23.262;2024-01-30T00:37:27;96501.09;;;0.29;89.23
12077;BME280;12420;42.676;23.262;2024-01-30T00:39:54;96496.94;;;0.21;89.51
12077;BME280;12420;42.676;23.262;2024-01-30T00:42:22;96496.84;;;0.28;89.20
12077;BME280;12420;42.676;23.262;2024-01-30T00:44:50;96492.81;;;0.36;89.17
12077;BME280;12420;42.676;23.262;2024-01-30T00:47:17;96500.91;;;0.40;89.77
12077;BME280;12420;42.676;23.262;2024-01-30T00:49:44;96496.59;;;0.42;89.25
12077;BME280;12420;42.676;23.262;2024-01-30T00:52:11;96488.78;;;0.45;89.38
12077;BME280;12420;42.676;23.262;2024-01-30T00:54:38;96477.16;;;0.40;90.07
12077;BME280;12420;42.676;23.262;2024-01-30T00:57:05;96483.28;;;0.48;89.77
12077;BME280;12420;42.676;23.262;2024-01-30T00:59:33;96483.50;;;0.57;90.23
12077;BME280;12420;42.676;23.262;2024-01-30T01:01:59;96496.91;;;0.72;90.62
12077;BME280;12420;42.676;23.262;2024-01-30T01:04:26;96499.19;;;0.73;92.15
12077;BME280;12420;42.676;23.262;2024-01-30T01:06:53;96493.81;;;0.70;92.89
12077;BME280;12420;42.676;23.262;2024-01-30T01:09:20;96485.00;;;0.62;92.68
12077;BME280;12420;42.676;23.262;2024-01-30T01:11:47;96495.22;;;0.78;92.26
12077;BME280;12420;42.676;23.262;2024-01-30T01:14:14;96481.66;;;0.74;90.04
12077;BME280;12420;42.676;23.262;2024-01-30T01:16:42;96474.19;;;0.78;88.58
12077;BME280;12420;42.676;23.262;2024-01-30T01:19:09;96494.25;;;0.88;87.33
12077;BME280;12420;42.676;23.262;2024-01-30T01:21:35;96477.38;;;0.73;86.35
12077;BME280;12420;42.676;23.262;2024-01-30T01:24:03;96493.50;;;0.88;85.96
12077;BME280;12420;42.676;23.262;2024-01-30T01:26:30;96492.66;;;0.91;86.55
12077;BME280;12420;42.676;23.262;2024-01-30T01:28:56;96493.44;;;0.91;86.46
12077;BME280;12420;42.676;23.262;2024-01-30T01:31:23;96464.97;;;0.72;86.59
12077;BME280;12420;42.676;23.262;2024-01-30T01:33:51;96496.09;;;0.95;86.63
12077;BME280;12420;42.676;23.262;2024-01-30T01:36:18;96498.00;;;0.98;85.06
12077;BME280;12420;42.676;23.262;2024-01-30T01:38:45;96497.06;;;0.84;84.52
12077;BME280;12420;42.676;23.262;2024-01-30T01:41:11;96495.28;;;0.74;86.10
12077;BME280;12420;42.676;23.262;2024-01-30T01:43:38;96472.19;;;0.35;87.56
12077;BME280;12420;42.676;23.262;2024-01-30T01:46:05;96486.53;;;0.39;88.28
12077;BME280;12420;42.676;23.262;2024-01-30T01:48:33;96498.00;;;0.51;87.59
12077;BME280;12420;42.676;23.262;2024-01-30T01:51:01;96495.72;;;0.49;87.78
12077;BME280;12420;42.676;23.262;2024-01-30T01:53:29;96493.03;;;0.46;87.83
12077;BME280;12420;42.676;23.262;2024-01-30T01:55:56;96479.66;;;0.31;87.79
12077;BME280;12420;42.676;23.262;2024-01-30T01:58:26;96498.38;;;0.53;87.73
12077;BME280;12420;42.676;23.262;2024-01-30T02:00:56;96498.56;;;0.42;87.80
12077;BME280;12420;42.676;23.262;2024-01-30T02:03:23;96497.44;;;0.39;88.38
12077;BME280;12420;42.676;23.262;2024-01-30T02:05:50;96501.03;;;0.33;88.42
12077;BME280;12420;42.676;23.262;2024-01-30T02:08:19;96503.00;;;0.32;88.94
12077;BME280;12420;42.676;23.262;2024-01-30T02:10:45;96502.28;;;0.28;88.48
12077;BME280;12420;42.676;23.262;2024-01-30T02:13:13;96505.72;;;0.32;88.28
12077;BME280;12420;42.676;23.262;2024-01-30T02:15:39;96493.47;;;-0.07;89.79
12077;BME280;12420;42.676;23.262;2024-01-30T02:18:06;96504.16;;;0.08;89.09
12077;BME280;12420;42.676;23.262;2024-01-30T02:20:34;96509.75;;;-0.03;89.21
12077;BME280;12420;42.676;23.262;2024-01-30T02:23:04;96501.63;;;-0.07;89.46
12077;BME280;12420;42.676;23.262;2024-01-30T02:25:32;96503.06;;;0.02;89.24
12077;BME280;12420;42.676;23.262;2024-01-30T02:27:59;96503.53;;;-0.04;88.96
12077;BME280;12420;42.676;23.262;2024-01-30T02:30:26;96496.56;;;-0.05;89.04
12077;BME280;12420;42.676;23.262;2024-01-30T02:32:53;96484.66;;;-0.18;89.55
12077;BME280;12420;42.676;23.262;2024-01-30T02:35:20;96485.00;;;-0.12;89.56
12077;BME280;12420;42.676;23.262;2024-01-30T02:37:46;96471.28;;;-0.32;89.51
12077;BME280;12420;42.676;23.262;2024-01-30T02:40:14;96492.84;;;-0.18;89.99
12077;BME280;12420;42.676;23.262;2024-01-30T02:42:41;96478.31;;;-0.35;90.72
12077;BME280;12420;42.676;23.262;2024-01-30T02:45:09;96493.34;;;-0.27;90.59
12077;BME280;12420;42.676;23.262;2024-01-30T02:47:36;96480.31;;;-0.39;91.90
12077;BME280;12420;42.676;23.262;2024-01-30T02:50:04;96499.47;;;-0.19;90.53
12077;BME280;12420;42.676;23.262;2024-01-30T02:52:30;96485.88;;;-0.19;90.70
12077;BME280;12420;42.676;23.262;2024-01-30T02:54:57;96499.88;;;-0.20;91.75
12077;BME280;12420;42.676;23.262;2024-01-30T02:57:26;96485.25;;;-0.30;89.73
12077;BME280;12420;42.676;23.262;2024-01-30T02:59:53;96468.56;;;-0.32;89.74
12077;BME280;12420;42.676;23.262;2024-01-30T03:02:19;96495.78;;;-0.32;91.06
12077;BME280;12420;42.676;23.262;2024-01-30T03:04:46;96492.28;;;-0.33;91.04
12077;BME280;12420;42.676;23.262;2024-01-30T03:07:13;96492.13;;;-0.22;91.08
12077;BME280;12420;42.676;23.262;2024-01-30T03:09:41;96487.47;;;-0.22;89.25
12077;BME280;12420;42.676;23.262;2024-01-30T03:12:08;96494.84;;;-0.22;89.53
12077;BME280;12420;42.676;23.262;2024-01-30T03:14:36;96492.16;;;-0.26;90.34
12077;BME280;12420;42.676;23.262;2024-01-30T03:17:03;96473.47;;;-0.24;90.07
12077;BME280;12420;42.676;23.262;2024-01-30T03:19:30;96487.56;;;-0.29;90.10
12077;BME280;12420;42.676;23.262;2024-01-30T03:21:56;96481.75;;;-0.31;90.05
12077;BME280;12420;42.676;23.262;2024-01-30T03:24:23;96481.94;;;-0.18;90.45
12077;BME280;12420;42.676;23.262;2024-01-30T03:26:50;96484.38;;;-0.24;90.10
12077;BME280;12420;42.676;23.262;2024-01-30T03:29:17;96482.78;;;-0.21;90.08
12077;BME280;12420;42.676;23.262;2024-01-30T03:31:45;96481.56;;;-0.16;90.28
12077;BME280;12420;42.676;23.262;2024-01-30T03:34:11;96489.34;;;-0.18;89.87
12077;BME280;12420;42.676;23.262;2024-01-30T03:36:38;96470.38;;;-0.22;89.84
12077;BME280;12420;42.676;23.262;2024-01-30T03:39:05;96484.19;;;-0.09;89.66
12077;BME280;12420;42.676;23.262;2024-01-30T03:41:32;96457.31;;;-0.34;89.47
12077;BME280;12420;42.676;23.262;2024-01-30T03:43:59;96474.25;;;-0.23;89.23
12077;BME280;12420;42.676;23.262;2024-01-30T03:46:25;96479.59;;;-0.16;88.20
12077;BME280;12420;42.676;23.262;2024-01-30T03:48:53;96481.81;;;-0.07;88.78
12077;BME280;12420;42.676;23.262;2024-01-30T03:51:20;96479.78;;;-0.03;88.67
12077;BME280;12420;42.676;23.262;2024-01-30T03:53:47;96475.59;;;-0.08;87.55
12077;BME280;12420;42.676;23.262;2024-01-30T03:56:14;96470.88;;;-0.04;87.52
12077;BME280;12420;42.676;23.262;2024-01-30T03:58:41;96470.50;;;-0.06;85.83
12077;BME280;12420;42.676;23.262;2024-01-30T04:01:07;96471.19;;;-0.25;87.23
12077;BME280;12420;42.676;23.262;2024-01-30T04:03:39;96474.63;;;-0.21;87.07
12077;BME280;12420;42.676;23.262;2024-01-30T04:06:07;96452.47;;;-0.23;86.71
12077;BME280;12420;42.676;23.262;2024-01-30T04:08:34;96459.94;;;-0.27;86.84
12077;BME280;12420;42.676;23.262;2024-01-30T04:11:03;96428.72;;;-0.46;86.08
12077;BME280;12420;42.676;23.262;2024-01-30T04:13:31;96455.34;;;-0.34;86.16
12077;BME280;12420;42.676;23.262;2024-01-30T04:15:59;96468.81;;;-0.23;86.44
12077;BME280;12420;42.676;23.262;2024-01-30T04:18:27;96448.84;;;-0.40;86.24
12077;BME280;12420;42.676;23.262;2024-01-30T04:20:54;96467.28;;;-0.24;85.95
12077;BME280;12420;42.676;23.262;2024-01-30T04:23:23;96462.03;;;-0.38;86.41
12077;BME280;12420;42.676;23.262;2024-01-30T04:25:49;96470.38;;;-0.22;86.51
12077;BME280;12420;42.676;23.262;2024-01-30T04:28:16;96448.03;;;-0.37;85.57
12077;BME280;12420;42.676;23.262;2024-01-30T04:30:44;96478.75;;;-0.13;86.00
12077;BME280;12420;42.676;23.262;2024-01-30T04:33:10;96478.38;;;-0.11;84.70
12077;BME280;12420;42.676;23.262;2024-01-30T04:35:37;96468.00;;;-0.20;84.98
12077;BME280;12420;42.676;23.262;2024-01-30T04:38:04;96480.72;;;-0.13;85.79
12077;BME280;12420;42.676;23.262;2024-01-30T04:40:32;96492.75;;;-0.11;86.04
12077;BME280;12420;42.676;23.262;2024-01-30T04:42:59;96470.25;;;-0.15;84.54
12077;BME280;12420;42.676;23.262;2024-01-30T04:45:27;96478.81;;;-0.16;83.96
12077;BME280;12420;42.676;23.262;2024-01-30T04:47:54;96483.19;;;-0.23;84.45
12077;BME280;12420;42.676;23.262;2024-01-30T04:50:21;96484.44;;;-0.27;85.24
12077;BME280;12420;42.676;23.262;2024-01-30T04:52:48;96447.53;;;-0.59;86.13
12077;BME280;12420;42.676;23.262;2024-01-30T04:55:15;96495.25;;;-0.24;85.31
12077;BME280;12420;42.676;23.262;2024-01-30T04:57:43;96503.06;;;-0.26;84.83
12077;BME280;12420;42.676;23.262;2024-01-30T05:00:10;96503.84;;;-0.25;84.90
12077;BME280;12420;42.676;23.262;2024-01-30T05:02:38;96506.88;;;-0.19;84.85
12077;BME280;12420;42.676;23.262;2024-01-30T05:05:05;96499.78;;;-0.13;84.16
12077;BME280;12420;42.676;23.262;2024-01-30T05:07:32;96497.66;;;-0.29;85.40
12077;BME280;12420;42.676;23.262;2024-01-30T05:09:59;96502.66;;;-0.24;85.35
12077;BME280;12420;42.676;23.262;2024-01-30T05:12:26;96467.44;;;-0.66;85.99
12077;BME280;12420;42.676;23.262;2024-01-30T05:14:54;96504.13;;;-0.47;86.96
12077;BME280;12420;42.676;23.262;2024-01-30T05:17:21;96488.00;;;-0.61;87.33
12077;BME280;12420;42.676;23.262;2024-01-30T05:19:48;96505.09;;;-0.64;88.03
12077;BME280;12420;42.676;23.262;2024-01-30T05:22:15;96508.78;;;-0.47;87.91
12077;BME280;12420;42.676;23.262;2024-01-30T05:24:44;96513.47;;;-0.48;88.65
12077;BME280;12420;42.676;23.262;2024-01-30T05:27:11;96513.47;;;-0.48;89.06
12077;BME280;12420;42.676;23.262;2024-01-30T05:29:39;96500.47;;;-0.67;89.10
12077;BME280;12420;42.676;23.262;2024-01-30T05:32:07;96501.94;;;-0.59;89.73
12077;BME280;12420;42.676;23.262;2024-01-30T05:34:35;96511.19;;;-0.53;88.53
12077;BME280;12420;42.676;23.262;2024-01-30T05:37:03;96513.91;;;-0.53;89.53
12077;BME280;12420;42.676;23.262;2024-01-30T05:39:30;96509.69;;;-0.57;89.05
12077;BME280;12420;42.676;23.262;2024-01-30T05:41:58;96513.09;;;-0.50;88.89
12077;BME280;12420;42.676;23.262;2024-01-30T05:44:25;96507.25;;;-0.48;88.63
12077;BME280;12420;42.676;23.262;2024-01-30T05:46:52;96477.44;;;-0.59;88.50
12077;BME280;12420;42.676;23.262;2024-01-30T05:49:20;96479.00;;;-0.58;88.55
12077;BME280;12420;42.676;23.262;2024-01-30T05:51:47;96501.66;;;-0.37;88.00
12077;BME280;12420;42.676;23.262;2024-01-30T05:54:14;96508.56;;;-0.29;87.86
12077;BME280;12420;42.676;23.262;2024-01-30T05:56:41;96504.47;;;-0.45;88.28
12077;BME280;12420;42.676;23.262;2024-01-30T05:59:08;96500.16;;;-0.42;87.67
12077;BME280;12420;42.676;23.262;2024-01-30T06:01:34;96503.63;;;-0.38;87.98
12077;BME280;12420;42.676;23.262;2024-01-30T06:04:01;96505.31;;;-0.48;87.84
12077;BME280;12420;42.676;23.262;2024-01-30T06:06:29;96507.94;;;-0.40;88.35
12077;BME280;12420;42.676;23.262;2024-01-30T06:08:56;96501.66;;;-0.37;87.43
12077;BME280;12420;42.676;23.262;2024-01-30T06:11:28;96520.63;;;-0.30;86.31
12077;BME280;12420;42.676;23.262;2024-01-30T06:13:54;96510.81;;;-0.24;86.42
12077;BME280;12420;42.676;23.262;2024-01-30T06:16:21;96511.66;;;-0.31;85.04
12077;BME280;12420;42.676;23.262;2024-01-30T06:18:54;96500.91;;;-0.38;85.39
12077;BME280;12420;42.676;23.262;2024-01-30T06:21:21;96513.38;;;-0.40;84.05
12077;BME280;12420;42.676;23.262;2024-01-30T06:23:51;96516.88;;;-0.44;84.13
12077;BME280;12420;42.676;23.262;2024-01-30T06:26:17;96520.41;;;-0.43;85.18
12077;BME280;12420;42.676;23.262;2024-01-30T06:28:44;96523.28;;;-0.57;85.71
12077;BME280;12420;42.676;23.262;2024-01-30T06:31:11;96521.25;;;-0.50;85.06
12077;BME280;12420;42.676;23.262;2024-01-30T06:33:37;96521.53;;;-0.40;85.56
12077;BME280;12420;42.676;23.262;2024-01-30T06:36:07;96523.34;;;-0.30;84.24
12077;BME280;12420;42.676;23.262;2024-01-30T06:38:34;96518.63;;;-0.26;83.49
12077;BME280;12420;42.676;23.262;2024-01-30T06:41:03;96527.81;;;-0.16;83.87
12077;BME280;12420;42.676;23.262;2024-01-30T06:43:30;96517.69;;;-0.16;83.38
12077;BME280;12420;42.676;23.262;2024-01-30T06:45:57;96531.13;;;-0.02;81.95
12077;BME280;12420;42.676;23.262;2024-01-30T06:48:24;96527.94;;;0.04;80.34
12077;BME280;12420;42.676;23.262;2024-01-30T06:50:53;96499.84;;;-0.17;80.18
12077;BME280;12420;42.676;23.262;2024-01-30T06:53:20;96541.03;;;0.12;80.56
12077;BME280;12420;42.676;23.262;2024-01-30T06:55:47;96530.78;;;0.20;79.02
12077;BME280;12420;42.676;23.262;2024-01-30T06:58:15;96530.47;;;0.18;77.94
12077;BME280;12420;42.676;23.262;2024-01-30T07:00:42;96518.00;;;0.17;78.80
12077;BME280;12420;42.676;23.262;2024-01-30T07:03:09;96546.22;;;0.30;78.17
12077;BME280;12420;42.676;23.262;2024-01-30T07:05:36;96528.47;;;0.46;77.89
12077;BME280;12420;42.676;23.262;2024-01-30T07:08:03;96532.09;;;0.62;77.34
12077;BME280;12420;42.676;23.262;2024-01-30T07:10:30;96511.41;;;0.41;77.10
12077;BME280;12420;42.676;23.262;2024-01-30T07:12:57;96530.38;;;0.72;77.14
12077;BME280;12420;42.676;23.262;2024-01-30T07:15:25;96533.31;;;0.81;77.42
12077;BME280;12420;42.676;23.262;2024-01-30T07:17:52;96527.56;;;0.99;76.53
12077;BME280;12420;42.676;23.262;2024-01-30T07:20:19;96532.47;;;1.08;73.45
12077;BME280;12420;42.676;23.262;2024-01-30T07:22:46;96560.19;;;1.26;73.01
12077;BME280;12420;42.676;23.262;2024-01-30T07:25:13;96516.25;;;1.21;71.66
12077;BME280;12420;42.676;23.262;2024-01-30T07:27:40;96544.41;;;1.14;71.81
12077;BME280;12420;42.676;23.262;2024-01-30T07:30:08;96539.56;;;1.25;71.34
12077;BME280;12420;42.676;23.262;2024-01-30T07:32:36;96527.03;;;1.28;72.46
12077;BME280;12420;42.676;23.262;2024-01-30T07:35:03;96541.44;;;1.28;70.64
12077;BME280;12420;42.676;23.262;2024-01-30T07:37:30;96541.28;;;1.16;71.35
12077;BME280;12420;42.676;23.262;2024-01-30T07:39:57;96536.13;;;1.21;70.62
12077;BME280;12420;42.676;23.262;2024-01-30T07:42:24;96517.63;;;1.09;69.84
12077;BME280;12420;42.676;23.262;2024-01-30T07:44:51;96531.56;;;1.35;71.33
12077;BME280;12420;42.676;23.262;2024-01-30T07:47:18;96512.41;;;1.18;69.00
12077;BME280;12420;42.676;23.262;2024-01-30T07:49:46;96536.22;;;1.38;68.42
12077;BME280;12420;42.676;23.262;2024-01-30T07:52:13;96526.28;;;1.27;70.13
12077;BME280;12420;42.676;23.262;2024-01-30T07:54:49;96529.28;;;1.33;68.99
12077;BME280;12420;42.676;23.262;2024-01-30T07:57:16;96522.06;;;1.23;70.11
12077;BME280;12420;42.676;23.262;2024-01-30T07:59:43;96538.72;;;1.28;69.84
12077;BME280;12420;42.676;23.262;2024-01-30T08:02:11;96543.91;;;1.43;69.56
12077;BME280;12420;42.676;23.262;2024-01-30T08:04:39;96517.31;;;1.47;69.26
12077;BME280;12420;42.676;23.262;2024-01-30T08:07:07;96523.38;;;1.55;68.98
12077;BME280;12420;42.676;23.262;2024-01-30T08:09:34;96482.69;;;1.24;69.00
12077;BME280;12420;42.676;23.262;2024-01-30T08:12:00;96521.59;;;1.48;68.52
12077;BME280;12420;42.676;23.262;2024-01-30T08:14:28;96517.66;;;1.29;68.77
12077;BME280;12420;42.676;23.262;2024-01-30T08:16:55;96514.72;;;1.40;69.88
12077;BME280;12420;42.676;23.262;2024-01-30T08:19:22;96520.25;;;1.56;70.51
12077;BME280;12420;42.676;23.262;2024-01-30T08:21:48;96525.22;;;1.61;69.12
12077;BME280;12420;42.676;23.262;2024-01-30T08:24:16;96504.91;;;1.62;68.96
12077;BME280;12420;42.676;23.262;2024-01-30T08:26:43;96516.03;;;1.71;67.94
12077;BME280;12420;42.676;23.262;2024-01-30T08:29:10;96486.22;;;1.61;67.23
12077;BME280;12420;42.676;23.262;2024-01-30T08:31:37;96535.13;;;1.71;68.38
12077;BME280;12420;42.676;23.262;2024-01-30T08:34:04;96538.41;;;1.83;66.49
12077;BME280;12420;42.676;23.262;2024-01-30T08:36:31;96531.84;;;1.60;67.53
12077;BME280;12420;42.676;23.262;2024-01-30T08:38:58;96541.44;;;1.68;67.35
12077;BME280;12420;42.676;23.262;2024-01-30T08:41:27;96523.00;;;1.72;66.69
12077;BME280;12420;42.676;23.262;2024-01-30T08:43:54;96541.84;;;1.67;66.99
12077;BME280;12420;42.676;23.262;2024-01-30T08:46:21;96536.41;;;1.67;67.31
12077;BME280;12420;42.676;23.262;2024-01-30T08:48:48;96528.34;;;1.60;66.95
12077;BME280;12420;42.676;23.262;2024-01-30T08:51:15;96543.47;;;1.64;67.06
12077;BME280;12420;42.676;23.262;2024-01-30T08:53:41;96545.28;;;1.51;69.18
12077;BME280;12420;42.676;23.262;2024-01-30T08:56:08;96539.00;;;1.54;68.44
12077;BME280;12420;42.676;23.262;2024-01-30T08:58:36;96515.16;;;1.38;68.78
12077;BME280;12420;42.676;23.262;2024-01-30T09:01:03;96554.88;;;1.59;69.08
12077;BME280;12420;42.676;23.262;2024-01-30T09:03:31;96523.13;;;1.49;69.26
12077;BME280;12420;42.676;23.262;2024-01-30T09:05:57;96531.22;;;1.52;69.41
12077;BME280;12420;42.676;23.262;2024-01-30T09:08:24;96556.09;;;1.58;68.83
12077;BME280;12420;42.676;23.262;2024-01-30T09:10:51;96552.84;;;1.63;68.61
12077;BME280;12420;42.676;23.262;2024-01-30T09:13:18;96545.66;;;1.53;68.64
12077;BME280;12420;42.676;23.262;2024-01-30T09:15:46;96530.41;;;1.36;70.45
12077;BME280;12420;42.676;23.262;2024-01-30T09:18:13;96517.78;;;1.42;71.62
12077;BME280;12420;42.676;23.262;2024-01-30T09:20:40;96540.25;;;1.49;73.77
12077;BME280;12420;42.676;23.262;2024-01-30T09:23:07;96529.16;;;1.40;73.59
12077;BME280;12420;42.676;23.262;2024-01-30T09:25:33;96482.38;;;0.98;75.66
12077;BME280;12420;42.676;23.262;2024-01-30T09:28:00;96535.38;;;1.41;75.04
12077;BME280;12420;42.676;23.262;2024-01-30T09:30:27;96543.75;;;1.50;74.57
12077;BME280;12420;42.676;23.262;2024-01-30T09:32:56;96498.41;;;1.16;74.47
12077;BME280;12420;42.676;23.262;2024-01-30T09:35:22;96530.03;;;1.34;75.55
12077;BME280;12420;42.676;23.262;2024-01-30T09:37:49;96517.25;;;1.30;75.22
12077;BME280;12420;42.676;23.262;2024-01-30T09:40:18;96502.88;;;1.06;75.75
12077;BME280;12420;42.676;23.262;2024-01-30T09:42:47;96537.22;;;1.24;75.45
12077;BME280;12420;42.676;23.262;2024-01-30T09:45:14;96519.38;;;1.19;74.17
12077;BME280;12420;42.676;23.262;2024-01-30T09:47:42;96519.81;;;1.18;74.33
12077;BME280;12420;42.676;23.262;2024-01-30T09:50:12;96532.22;;;1.22;75.03
12077;BME280;12420;42.676;23.262;2024-01-30T09:52:39;96484.28;;;1.01;74.30
12077;BME280;12420;42.676;23.262;2024-01-30T09:55:06;96513.59;;;1.37;74.69
12077;BME280;12420;42.676;23.262;2024-01-30T09:57:33;96506.19;;;1.38;74.29
12077;BME280;12420;42.676;23.262;2024-01-30T10:00:00;96510.81;;;1.41;74.86
12077;BME280;12420;42.676;23.262;2024-01-30T10:02:28;96508.16;;;1.17;73.85
12077;BME280;12420;42.676;23.262;2024-01-30T10:04:55;96508.63;;;1.12;73.50
12077;BME280;12420;42.676;23.262;2024-01-30T10:07:23;96524.72;;;1.26;74.25
12077;BME280;12420;42.676;23.262;2024-01-30T10:09:50;96515.34;;;1.27;74.37
12077;BME280;12420;42.676;23.262;2024-01-30T10:12:16;96502.75;;;1.34;74.06
12077;BME280;12420;42.676;23.262;2024-01-30T10:14:43;96498.41;;;1.16;74.07
12077;BME280;12420;42.676;23.262;2024-01-30T10:17:11;96494.66;;;1.30;74.22
12077;BME280;12420;42.676;23.262;2024-01-30T10:19:39;96501.91;;;1.37;74.11
12077;BME280;12420;42.676;23.262;2024-01-30T10:22:07;96513.31;;;1.51;74.61
12077;BME280;12420;42.676;23.262;2024-01-30T10:24:36;96509.75;;;1.55;73.24
12077;BME280;12420;42.676;23.262;2024-01-30T10:27:05;96501.66;;;1.67;72.23
12077;BME280;12420;42.676;23.262;2024-01-30T10:29:32;96498.94;;;1.67;72.17
12077;BME280;12420;42.676;23.262;2024-01-30T10:31:59;96497.78;;;1.68;71.33
12077;BME280;12420;42.676;23.262;2024-01-30T10:34:26;96507.47;;;1.69;71.91
12077;BME280;12420;42.676;23.262;2024-01-30T10:36:59;96504.41;;;1.67;71.07
12077;BME280;12420;42.676;23.262;2024-01-30T10:39:29;96521.13;;;1.69;71.97
12077;BME280;12420;42.676;23.262;2024-01-30T10:42:01;96500.66;;;1.61;71.32
12077;BME280;12420;42.676;23.262;2024-01-30T10:44:36;96506.81;;;1.45;71.48
12077;BME280;12420;42.676;23.262;2024-01-30T10:47:06;96496.72;;;1.42;72.00
12077;BME280;12420;42.676;23.262;2024-01-30T10:49:38;96494.91;;;1.56;72.88
12077;BME280;12420;42.676;23.262;2024-01-30T10:52:06;96484.69;;;1.40;71.72
12077;BME280;12420;42.676;23.262;2024-01-30T10:54:35;96482.31;;;1.42;71.64
12077;BME280;12420;42.676;23.262;2024-01-30T10:57:05;96453.50;;;1.41;72.20
12077;BME280;12420;42.676;23.262;2024-01-30T10:59:32;96485.78;;;1.62;71.80
12077;BME280;12420;42.676;23.262;2024-01-30T11:02:00;96469.28;;;1.69;71.18
12077;BME280;12420;42.676;23.262;2024-01-30T11:04:27;96476.81;;;1.82;71.58
12077;BME280;12420;42.676;23.262;2024-01-30T11:06:54;96481.66;;;1.74;70.91
12077;BME280;12420;42.676;23.262;2024-01-30T11:09:23;96464.88;;;1.92;71.72
12077;BME280;12420;42.676;23.262;2024-01-30T11:11:50;96458.75;;;2.04;70.89
12077;BME280;12420;42.676;23.262;2024-01-30T11:14:24;96443.78;;;1.92;70.52
12077;BME280;12420;42.676;23.262;2024-01-30T11:16:51;96428.50;;;1.79;71.59
12077;BME280;12420;42.676;23.262;2024-01-30T11:19:22;96461.06;;;2.22;72.36
12077;BME280;12420;42.676;23.262;2024-01-30T11:21:51;96454.50;;;2.20;70.54
12077;BME280;12420;42.676;23.262;2024-01-30T11:24:19;96461.66;;;2.30;69.20
12077;BME280;12420;42.676;23.262;2024-01-30T11:26:48;96462.59;;;2.23;69.68
12077;BME280;12420;42.676;23.262;2024-01-30T11:29:17;96458.25;;;2.09;70.14
12077;BME280;12420;42.676;23.262;2024-01-30T11:31:53;96456.69;;;2.25;71.36
12077;BME280;12420;42.676;23.262;2024-01-30T11:34:20;96457.88;;;2.24;69.20
12077;BME280;12420;42.676;23.262;2024-01-30T11:36:52;96455.41;;;2.13;72.07
12077;BME280;12420;42.676;23.262;2024-01-30T11:39:24;96461.91;;;2.19;70.27
12077;BME280;12420;42.676;23.262;2024-01-30T11:41:52;96461.81;;;2.23;71.00
12077;BME280;12420;42.676;23.262;2024-01-30T11:44:19;96463.44;;;2.36;73.67
12077;BME280;12420;42.676;23.262;2024-01-30T11:46:47;96454.38;;;2.23;70.85
12077;BME280;12420;42.676;23.262;2024-01-30T11:49:16;96450.72;;;2.30;71.33
12077;BME280;12420;42.676;23.262;2024-01-30T11:51:45;96458.91;;;2.46;70.97
12077;BME280;12420;42.676;23.262;2024-01-30T11:54:14;96430.31;;;2.34;70.32
12077;BME280;12420;42.676;23.262;2024-01-30T11:56:41;96424.94;;;2.31;69.51
12077;BME280;12420;42.676;23.262;2024-01-30T11:59:08;96447.38;;;2.38;70.33
12077;BME280;12420;42.676;23.262;2024-01-30T12:01:36;96450.72;;;2.30;70.49
12077;BME280;12420;42.676;23.262;2024-01-30T12:04:03;96421.69;;;2.20;71.43
12077;BME280;12420;42.676;23.262;2024-01-30T12:06:35;96404.44;;;2.23;70.83
12077;BME280;12420;42.676;23.262;2024-01-30T12:09:03;96427.31;;;2.45;69.62
12077;BME280;12420;42.676;23.262;2024-01-30T12:11:31;96432.78;;;2.45;69.84
12077;BME280;12420;42.676;23.262;2024-01-30T12:13:58;96421.59;;;2.39;70.43
12077;BME280;12420;42.676;23.262;2024-01-30T12:16:25;96415.63;;;2.45;71.33
12077;BME280;12420;42.676;23.262;2024-01-30T12:18:59;96412.66;;;2.23;71.34
12077;BME280;12420;42.676;23.262;2024-01-30T12:21:26;96403.00;;;2.34;71.98
12077;BME280;12420;42.676;23.262;2024-01-30T12:23:56;96406.50;;;2.35;71.18
12077;BME280;12420;42.676;23.262;2024-01-30T12:26:23;96411.09;;;2.38;71.05
12077;BME280;12420;42.676;23.262;2024-01-30T12:28:50;96408.25;;;2.42;70.21
12077;BME280;12420;42.676;23.262;2024-01-30T12:31:17;96394.53;;;2.29;71.74
12077;BME280;12420;42.676;23.262;2024-01-30T12:33:44;96392.13;;;2.31;72.20
12077;BME280;12420;42.676;23.262;2024-01-30T12:36:11;96395.72;;;2.28;70.56
12077;BME280;12420;42.676;23.262;2024-01-30T12:38:38;96396.22;;;2.39;70.01
12077;BME280;12420;42.676;23.262;2024-01-30T12:41:08;96371.50;;;2.30;70.21
12077;BME280;12420;42.676;23.262;2024-01-30T12:43:35;96398.69;;;2.50;70.52
12077;BME280;12420;42.676;23.262;2024-01-30T12:46:02;96392.38;;;2.53;71.21
12077;BME280;12420;42.676;23.262;2024-01-30T12:48:29;96393.31;;;2.46;70.34
12077;BME280;12420;42.676;23.262;2024-01-30T12:50:56;96397.72;;;2.56;69.80
12077;BME280;12420;42.676;23.262;2024-01-30T12:53:23;96379.88;;;2.52;69.35
12077;BME280;12420;42.676;23.262;2024-01-30T12:55:50;96390.06;;;2.51;68.67
12077;BME280;12420;42.676;23.262;2024-01-30T12:58:18;96382.19;;;2.53;68.91